KFRI

Marshall AAF Airport

Fort Riley(Junction City), Kansas, USA
METAR KFRI 230056Z AUTO 00000KT 10SM CLR 14/10 A3015 RMK AO2 SLP209 T01410095
Observed Flight Rules
Oct-23 @ 00:56 UTC (an hour ago) Visual Flight Rules
Visibility Clouds
10 miles
  • Clear skies
Temperatures Readings
Current 14°C / 57°F
Dewpoint 10°C / 50°F
Humidity 77%
Altimeter 30.15" Hg
Pressure 1020.9 hPa
Elevation 325
METAR KFRI 230056Z AUTO 00000KT 10SM CLR 14/10 A3015 RMK AO2 SLP209 T01410095
Observed Flight Rules
Oct-23 @ 00:56 UTC
(an hour ago)
VFR
Clouds
  • Clear skies
Temperature Dewpoint
14°C / 57°F 10°C / 50°F
Humidity Altimeter Pressure
77% 30.15" Hg 1020.9 hPa